createdAt,value
2022-12-27T00:03:53.468Z,17.21
2022-12-27T00:08:56.778Z,17.21
2022-12-27T00:14:04.325Z,17.19
2022-12-27T00:19:06.403Z,17.18
2022-12-27T00:24:08.470Z,17.23
2022-12-27T00:29:11.181Z,17.27
2022-12-27T00:34:19.137Z,17.29
2022-12-27T00:39:21.148Z,17.25
2022-12-27T00:44:23.041Z,17.21
2022-12-27T00:49:25.018Z,17.18
2022-12-27T00:54:26.986Z,17.15
2022-12-27T00:59:29.081Z,17.14
2022-12-27T01:06:15.590Z,16.09
2022-12-27T01:11:18.310Z,17.00
2022-12-27T01:16:22.513Z,16.91
2022-12-27T01:21:25.335Z,16.91
2022-12-27T01:26:27.254Z,17.01
2022-12-27T01:31:29.445Z,16.95
2022-12-27T01:36:31.774Z,16.88
2022-12-27T01:41:58.423Z,16.74
2022-12-27T01:47:02.419Z,16.67
2022-12-27T01:52:04.995Z,16.62
2022-12-27T01:57:07.060Z,16.56
2022-12-27T02:02:09.682Z,16.52
2022-12-27T02:07:11.686Z,16.50
2022-12-27T02:12:13.690Z,16.57
2022-12-27T02:17:23.907Z,16.56
2022-12-27T02:23:16.123Z,16.58
2022-12-27T02:28:53.690Z,16.61
2022-12-27T02:33:59.787Z,16.61
2022-12-27T02:39:03.961Z,16.58
2022-12-27T02:44:24.622Z,16.60
2022-12-27T02:49:47.983Z,16.62
2022-12-27T02:55:19.214Z,16.66
2022-12-27T03:00:43.626Z,16.63
2022-12-27T03:06:32.676Z,16.58
2022-12-27T03:12:11.229Z,16.59
2022-12-27T03:17:26.344Z,16.54
2022-12-27T03:22:49.348Z,16.52
2022-12-27T03:28:12.299Z,16.38
2022-12-27T03:33:14.312Z,16.22
2022-12-27T03:38:16.482Z,16.09
2022-12-27T03:43:18.500Z,15.87
2022-12-27T03:48:24.675Z,15.30
2022-12-27T03:53:34.143Z,14.71
2022-12-27T03:58:36.151Z,14.26
2022-12-27T04:03:38.185Z,14.02
2022-12-27T04:08:58.707Z,13.91
2022-12-27T04:14:19.115Z,13.87
2022-12-27T04:19:39.584Z,13.81
2022-12-27T04:24:59.939Z,13.74
2022-12-27T04:30:20.725Z,13.65
2022-12-27T04:35:22.605Z,13.65
2022-12-27T04:40:42.987Z,13.61
2022-12-27T04:46:03.647Z,13.63
2022-12-27T04:51:26.652Z,13.66
2022-12-27T04:56:28.600Z,13.63
2022-12-27T05:01:49.627Z,13.61
2022-12-27T05:06:51.824Z,13.67
2022-12-27T05:12:12.227Z,13.64
2022-12-27T05:17:14.204Z,13.63
2022-12-27T05:22:34.579Z,13.62
2022-12-27T05:27:36.480Z,13.57
2022-12-27T05:32:38.418Z,13.48
2022-12-27T05:37:40.331Z,13.43
2022-12-27T05:42:42.991Z,13.40
2022-12-27T05:47:45.329Z,13.34
2022-12-27T05:52:47.186Z,13.28
2022-12-27T05:57:49.120Z,13.17
2022-12-27T06:02:51.769Z,13.07
2022-12-27T06:07:53.909Z,13.00
2022-12-27T06:12:55.830Z,12.99
2022-12-27T06:17:59.548Z,12.98
2022-12-27T06:23:01.383Z,12.99
2022-12-27T06:28:03.479Z,12.98
2022-12-27T06:33:07.603Z,12.88
2022-12-27T06:38:09.587Z,12.86
2022-12-27T06:43:11.505Z,12.79
2022-12-27T06:48:14.570Z,12.68
2022-12-27T06:53:16.516Z,12.48
2022-12-27T06:58:18.451Z,12.40
2022-12-27T07:03:20.394Z,12.37
2022-12-27T07:08:22.352Z,12.34
2022-12-27T07:13:24.265Z,12.31
2022-12-27T07:18:26.199Z,12.33
2022-12-27T07:23:28.071Z,12.34
2022-12-27T07:28:30.745Z,12.31
2022-12-27T07:33:32.702Z,12.32
2022-12-27T07:38:34.490Z,12.30
2022-12-27T07:43:37.004Z,12.30
2022-12-27T07:48:40.057Z,12.27
2022-12-27T07:53:42.394Z,12.25
2022-12-27T07:58:47.557Z,12.22
2022-12-27T08:03:56.320Z,12.28
2022-12-27T08:09:05.528Z,12.22
2022-12-27T08:14:07.596Z,12.19
2022-12-27T08:19:09.767Z,12.25
2022-12-27T08:24:11.666Z,12.33
2022-12-27T08:29:13.577Z,12.34
2022-12-27T08:34:15.681Z,12.37
2022-12-27T08:39:18.177Z,12.46
2022-12-27T08:44:21.336Z,12.54
2022-12-27T08:49:23.396Z,12.62
2022-12-27T08:54:25.295Z,12.71
2022-12-27T08:59:27.189Z,12.83
2022-12-27T09:04:29.139Z,12.95
2022-12-27T09:09:31.341Z,12.96
2022-12-27T09:14:33.351Z,13.08
2022-12-27T09:19:36.361Z,13.19
2022-12-27T09:24:38.118Z,13.20
2022-12-27T09:29:44.567Z,13.17
2022-12-27T09:34:50.037Z,13.18
2022-12-27T09:39:51.991Z,13.24
2022-12-27T09:45:14.807Z,13.28
2022-12-27T09:50:28.481Z,13.39
2022-12-27T09:56:04.466Z,13.44
2022-12-27T10:01:19.898Z,13.57
2022-12-27T10:06:31.084Z,13.57
2022-12-27T10:12:02.608Z,13.61
2022-12-27T10:17:25.748Z,13.72
2022-12-27T10:22:35.377Z,13.82
2022-12-27T10:27:37.373Z,13.88
2022-12-27T10:32:39.145Z,13.94
2022-12-27T10:37:41.209Z,13.93
2022-12-27T10:42:54.368Z,13.95
2022-12-27T10:48:02.776Z,14.06
2022-12-27T10:53:04.834Z,14.07
2022-12-27T10:58:42.159Z,14.07
2022-12-27T11:03:45.385Z,14.20
2022-12-27T11:08:47.713Z,14.25
2022-12-27T11:13:50.732Z,14.32
2022-12-27T11:18:55.712Z,14.45
2022-12-27T11:24:00.818Z,14.52
2022-12-27T11:29:03.506Z,14.63
2022-12-27T11:34:15.046Z,14.61
2022-12-27T11:39:53.870Z,14.61
2022-12-27T11:45:34.236Z,14.71
2022-12-27T11:50:55.153Z,14.82
2022-12-27T11:56:19.834Z,14.84
2022-12-27T12:01:58.052Z,14.70
2022-12-27T12:07:21.758Z,14.64
2022-12-27T12:12:26.700Z,14.63
2022-12-27T12:18:05.682Z,14.76
2022-12-27T12:23:28.971Z,14.85
2022-12-27T12:29:00.550Z,14.82
2022-12-27T12:34:05.669Z,14.83
2022-12-27T12:39:10.826Z,14.80
2022-12-27T12:44:22.261Z,14.83
2022-12-27T12:49:53.832Z,14.94
2022-12-27T12:55:17.521Z,14.95
2022-12-27T13:00:37.821Z,14.79
2022-12-27T13:06:04.609Z,14.68
2022-12-27T13:11:21.115Z,14.68
2022-12-27T13:16:42.838Z,14.49
2022-12-27T13:22:07.458Z,14.40
2022-12-27T13:27:09.488Z,14.35
2022-12-27T13:32:30.187Z,14.31
2022-12-27T13:37:56.366Z,14.23
2022-12-27T13:43:31.711Z,14.11
2022-12-27T13:49:02.238Z,14.06
2022-12-27T13:54:50.957Z,13.96
2022-12-27T14:00:02.686Z,13.84
2022-12-27T14:05:37.877Z,13.72
2022-12-27T14:10:49.320Z,13.71
2022-12-27T14:16:08.853Z,13.61
2022-12-27T14:21:17.629Z,13.48
2022-12-27T14:26:38.781Z,13.38
2022-12-27T14:31:59.628Z,13.41
2022-12-27T14:37:23.645Z,13.43
2022-12-27T14:42:33.146Z,13.46
2022-12-27T14:47:45.087Z,13.48
2022-12-27T14:53:06.904Z,13.43
2022-12-27T14:58:43.583Z,13.30
2022-12-27T15:03:56.588Z,13.21
2022-12-27T15:09:08.195Z,13.20
2022-12-27T15:14:10.748Z,13.17
2022-12-27T15:19:28.455Z,13.11
2022-12-27T15:24:55.015Z,13.13
2022-12-27T15:30:42.816Z,13.18
2022-12-27T15:36:01.940Z,13.12
2022-12-27T15:41:07.672Z,13.10
2022-12-27T15:46:35.860Z,13.16
2022-12-27T15:51:47.464Z,13.15
2022-12-27T15:57:16.969Z,13.15
2022-12-27T16:02:22.812Z,13.21
2022-12-27T16:07:41.330Z,13.14
2022-12-27T16:12:45.329Z,13.06
2022-12-27T16:17:55.225Z,13.07
2022-12-27T16:23:04.926Z,13.01
2022-12-27T16:28:18.427Z,12.99
2022-12-27T16:33:26.911Z,12.99
2022-12-27T16:38:30.619Z,13.02
2022-12-27T16:44:00.167Z,13.01
2022-12-27T16:49:25.356Z,13.00
2022-12-27T16:54:57.824Z,13.02
2022-12-27T17:00:05.387Z,12.99
2022-12-27T17:05:16.480Z,13.03
2022-12-27T17:10:27.723Z,13.03
2022-12-27T17:15:30.842Z,13.02
2022-12-27T17:20:33.293Z,13.00
2022-12-27T17:25:46.049Z,12.98
2022-12-27T17:31:00.340Z,12.97
2022-12-27T17:36:53.635Z,12.88
2022-12-27T17:42:34.184Z,12.78
2022-12-27T17:47:42.106Z,12.68
2022-12-27T17:53:21.396Z,12.56
2022-12-27T17:58:24.029Z,12.51
2022-12-27T18:03:39.659Z,12.48
2022-12-27T18:08:44.415Z,12.45
2022-12-27T18:13:53.768Z,12.45
2022-12-27T18:18:59.822Z,12.40
2022-12-27T18:24:01.976Z,12.33
2022-12-27T18:29:09.223Z,12.23
2022-12-27T18:34:31.471Z,12.17
2022-12-27T18:39:48.877Z,12.13
2022-12-27T18:44:57.081Z,12.17
2022-12-27T18:50:01.602Z,12.25
2022-12-27T18:55:28.831Z,12.17
2022-12-27T19:00:30.836Z,12.14
2022-12-27T19:05:32.930Z,12.04
2022-12-27T19:10:35.176Z,12.02
2022-12-27T19:15:43.491Z,12.08
2022-12-27T19:20:52.689Z,12.00
2022-12-27T19:26:17.627Z,11.90
2022-12-27T19:31:21.992Z,11.81
2022-12-27T19:36:30.207Z,11.68
2022-12-27T19:41:32.420Z,11.63
2022-12-27T19:47:51.379Z,11.62
2022-12-27T19:52:53.571Z,11.53
2022-12-27T19:57:56.264Z,11.49
2022-12-27T20:02:58.185Z,11.43
2022-12-27T20:08:03.218Z,11.39
2022-12-27T20:13:05.937Z,11.37
2022-12-27T20:18:09.520Z,11.31
2022-12-27T20:23:12.285Z,11.31
2022-12-27T20:28:16.382Z,11.34
2022-12-27T20:33:18.530Z,11.35
2022-12-27T20:38:20.457Z,11.39
2022-12-27T20:43:22.397Z,11.45
2022-12-27T20:48:25.035Z,11.49
2022-12-27T20:53:28.245Z,11.47
2022-12-27T20:58:31.316Z,11.50
2022-12-27T21:03:33.683Z,11.61
2022-12-27T21:08:44.588Z,11.71
2022-12-27T21:13:49.242Z,11.87
2022-12-27T21:18:52.012Z,11.99
2022-12-27T21:23:53.966Z,12.14
2022-12-27T21:31:15.442Z,12.22
2022-12-27T21:36:30.190Z,12.32
2022-12-27T21:41:37.634Z,12.43
2022-12-27T21:46:41.547Z,12.52
2022-12-27T21:51:43.884Z,12.57
2022-12-27T21:56:45.854Z,12.60
2022-12-27T22:01:51.746Z,12.58
2022-12-27T22:06:54.166Z,12.52
2022-12-27T22:11:56.184Z,12.52
2022-12-27T22:17:00.317Z,12.56
2022-12-27T22:22:02.219Z,12.59
2022-12-27T22:27:04.264Z,12.59
2022-12-27T22:32:06.286Z,12.59
2022-12-27T22:37:08.194Z,12.54
2022-12-27T22:42:10.080Z,12.48
2022-12-27T22:47:28.416Z,12.46
2022-12-27T22:52:30.533Z,12.50
2022-12-27T22:57:32.437Z,12.51
2022-12-27T23:02:34.504Z,12.47
2022-12-27T23:08:05.702Z,12.48
2022-12-27T23:12:58.546Z,12.47
2022-12-27T23:18:00.337Z,12.48
2022-12-27T23:23:02.201Z,12.52
2022-12-27T23:28:04.194Z,12.49
2022-12-27T23:36:25.091Z,11.33
2022-12-27T23:41:26.979Z,12.45
2022-12-27T23:46:31.316Z,12.44
2022-12-27T23:51:33.317Z,12.47
2022-12-27T23:56:35.269Z,12.53
